Time;durP1;ratioP1;P1;durP2;ratioP2;P2;SDS_P1;SDS_P2;PMS_P1;PMS_P2;Temp;Humidity;BMP_temperature;BMP_pressure;BME280_temperature;BME280_humidity;BME280_pressure;Samples;Min_cycle;Max_cycle;Signal;HPM_P1;HPM_P2
2022/10/13 04:00:09;;;;;;;14.30;10.90;;;;;;;;;;6191155;22;20420;31
2022/10/13 04:02:35;;;;;;;15.93;11.13;;;;;;;;;;5037381;22;20524;-91
2022/10/13 04:05:01;;;;;;;13.15;11.75;;;;;;;;;;5028770;28;20973;-89
2022/10/13 04:07:27;;;;;;;13.98;11.88;;;;;;;;;;5032468;28;20384;-89
2022/10/13 04:09:53;;;;;;;13.50;11.25;;;;;;;;;;5032049;28;20790;-90
2022/10/13 04:12:19;;;;;;;12.07;10.57;;;;;;;;;;5028131;28;20419;-89
2022/10/13 04:14:45;;;;;;;13.75;11.13;;;;;;;;;;5012489;28;20419;-89
2022/10/13 04:17:11;;;;;;;13.63;11.02;;;;;;;;;;5012721;28;20477;-90
2022/10/13 04:19:37;;;;;;;13.02;10.88;;;;;;;;;;5013550;28;20393;-89
2022/10/13 04:22:03;;;;;;;12.52;11.30;;;;;;;;;;5011159;28;20487;-90
2022/10/13 04:24:29;;;;;;;13.82;11.68;;;;;;;;;;5012441;28;20385;-89
2022/10/13 04:26:55;;;;;;;13.68;12.35;;;;;;;;;;5009846;28;20380;-89
2022/10/13 04:29:21;;;;;;;13.07;11.40;;;;;;;;;;5006982;28;20417;-89
2022/10/13 04:31:47;;;;;;;13.35;11.95;;;;;;;;;;5011316;28;20440;-90
2022/10/13 04:34:13;;;;;;;12.90;11.55;;;;;;;;;;5011234;28;20439;-89
2022/10/13 04:36:39;;;;;;;14.27;11.18;;;;;;;;;;5010999;28;20381;-89
2022/10/13 04:39:05;;;;;;;13.15;11.13;;;;;;;;;;5010576;28;20415;-90
2022/10/13 04:41:31;;;;;;;14.85;11.68;;;;;;;;;;5026186;28;20817;-89
2022/10/13 04:44:01;;;;;;;12.25;11.05;;;;;;;;;;5012999;28;20377;-89
2022/10/13 04:46:27;;;;;;;15.07;12.05;;;;;;;;;;5012079;28;20435;-88
2022/10/13 04:48:54;;;;;;;19.13;15.47;;;;;;;;;;5011585;28;20427;-89
2022/10/13 04:51:21;;;;;;;16.20;13.23;;;;;;;;;;5011001;28;20383;-89
2022/10/13 04:53:47;;;;;;;17.45;15.18;;;;;;;;;;5012031;28;20392;-89
2022/10/13 04:56:14;;;;;;;17.13;14.63;;;;;;;;;;5012162;28;20439;-89
2022/10/13 04:58:41;;;;;;;18.83;15.50;;;;;;;;;;5012190;28;20389;-90
2022/10/13 05:01:08;;;;;;;20.80;15.80;;;;;;;;;;5012000;28;20432;-88
2022/10/13 05:03:34;;;;;;;18.08;15.57;;;;;;;;;;5012256;28;20409;-89
2022/10/13 05:06:00;;;;;;;19.17;16.40;;;;;;;;;;5015109;28;20385;-88
2022/10/13 05:08:26;;;;;;;18.83;16.80;;;;;;;;;;5016109;28;20888;-88
2022/10/13 05:11:01;;;;;;;21.77;17.60;;;;;;;;;;5015757;28;20377;-89
2022/10/13 05:13:28;;;;;;;24.90;19.27;;;;;;;;;;5016033;28;20388;-88
2022/10/13 05:15:54;;;;;;;24.33;19.20;;;;;;;;;;5015831;28;20385;-89
2022/10/13 05:18:20;;;;;;;19.08;16.95;;;;;;;;;;5015893;28;20377;-89
2022/10/13 05:20:46;;;;;;;16.83;13.55;;;;;;;;;;5015722;28;20397;-88
2022/10/13 05:23:13;;;;;;;16.35;13.00;;;;;;;;;;5015702;28;20490;-88
2022/10/13 05:25:38;;;;;;;18.95;14.45;;;;;;;;;;5018348;28;20380;-90
2022/10/13 05:28:05;;;;;;;16.25;13.50;;;;;;;;;;5015587;28;20716;-88
2022/10/13 05:30:31;;;;;;;19.37;14.03;;;;;;;;;;5015865;28;20465;-89
2022/10/13 05:32:58;;;;;;;14.48;12.95;;;;;;;;;;5015488;28;20439;-88
2022/10/13 05:35:24;;;;;;;13.85;12.50;;;;;;;;;;5015580;28;20384;-89
2022/10/13 05:37:50;;;;;;;14.77;13.27;;;;;;;;;;5015482;28;20866;-89
2022/10/13 05:40:16;;;;;;;15.10;13.50;;;;;;;;;;5015428;28;20438;-90
2022/10/13 05:42:42;;;;;;;17.35;13.68;;;;;;;;;;5015280;28;20466;-89
2022/10/13 05:45:09;;;;;;;18.60;15.52;;;;;;;;;;5011688;28;20369;-89
2022/10/13 05:47:36;;;;;;;17.55;15.23;;;;;;;;;;5004996;28;20889;-89
2022/10/13 05:50:02;;;;;;;19.30;16.08;;;;;;;;;;5015283;28;20853;-88
2022/10/13 05:52:28;;;;;;;21.27;17.00;;;;;;;;;;5015533;28;20389;-89
2022/10/13 05:54:56;;;;;;;21.55;18.00;;;;;;;;;;5013794;28;20870;-88
2022/10/13 05:57:27;;;;;;;23.92;18.70;;;;;;;;;;5014999;28;20948;-88
2022/10/13 05:59:58;;;;;;;20.97;16.40;;;;;;;;;;5015170;28;20952;-89
2022/10/13 06:02:26;;;;;;;17.85;15.98;;;;;;;;;;5014907;28;20412;-89
2022/10/13 06:04:54;;;;;;;17.20;14.43;;;;;;;;;;5014970;28;20442;-90
2022/10/13 06:07:20;;;;;;;17.77;14.68;;;;;;;;;;5014937;28;20410;-91
2022/10/13 06:09:47;;;;;;;21.67;16.60;;;;;;;;;;5013988;28;20476;-90
2022/10/13 06:12:13;;;;;;;19.13;16.30;;;;;;;;;;5014860;28;20436;-89
2022/10/13 06:14:39;;;;;;;23.50;18.45;;;;;;;;;;5014789;28;20380;-89
2022/10/13 06:17:05;;;;;;;21.00;17.70;;;;;;;;;;5013719;28;20731;-88
2022/10/13 06:19:31;;;;;;;25.08;18.65;;;;;;;;;;5009559;28;20401;-90
2022/10/13 06:21:57;;;;;;;26.00;19.70;;;;;;;;;;5012488;28;20417;-89
2022/10/13 06:24:23;;;;;;;25.73;19.38;;;;;;;;;;5014485;28;20381;-91
2022/10/13 06:26:49;;;;;;;23.63;18.77;;;;;;;;;;5013388;28;20409;-92
2022/10/13 06:29:15;;;;;;;22.20;18.98;;;;;;;;;;5013524;28;20479;-90
2022/10/13 06:31:41;;;;;;;26.27;19.20;;;;;;;;;;5014388;28;20385;-91
2022/10/13 06:34:07;;;;;;;28.02;19.38;;;;;;;;;;5013933;28;20399;-90
2022/10/13 06:36:33;;;;;;;24.92;19.23;;;;;;;;;;5028372;28;20385;-90
2022/10/13 06:38:59;;;;;;;25.50;20.27;;;;;;;;;;5027233;28;20446;-91
2022/10/13 06:41:25;;;;;;;27.13;19.95;;;;;;;;;;5014217;28;20866;-91
2022/10/13 06:43:51;;;;;;;30.00;20.67;;;;;;;;;;5013685;28;20427;-90
2022/10/13 06:46:17;;;;;;;28.02;20.50;;;;;;;;;;5013441;28;20381;-90
2022/10/13 06:48:43;;;;;;;30.52;20.92;;;;;;;;;;5014255;28;20388;-91
2022/10/13 06:51:11;;;;;;;24.23;19.83;;;;;;;;;;5014027;28;20762;-92
2022/10/13 06:53:37;;;;;;;25.25;19.98;;;;;;;;;;5014252;28;20439;-91
2022/10/13 06:56:04;;;;;;;24.98;19.17;;;;;;;;;;5013215;28;20484;-90
2022/10/13 06:58:30;;;;;;;27.15;20.10;;;;;;;;;;5013401;28;20397;-90
2022/10/13 07:00:56;;;;;;;24.55;19.38;;;;;;;;;;5013711;28;20416;-91
2022/10/13 07:03:23;;;;;;;25.83;19.67;;;;;;;;;;5011281;28;20448;-92
2022/10/13 07:05:49;;;;;;;20.98;18.40;;;;;;;;;;5009940;28;20398;-91
2022/10/13 07:08:15;;;;;;;24.02;17.88;;;;;;;;;;5010589;28;20476;-91
2022/10/13 07:10:42;;;;;;;22.48;17.85;;;;;;;;;;5012813;28;20377;-91
2022/10/13 07:13:08;;;;;;;22.10;17.88;;;;;;;;;;5026102;28;20390;-91
2022/10/13 07:15:36;;;;;;;19.80;17.70;;;;;;;;;;5024402;28;20483;-92
2022/10/13 07:18:02;;;;;;;20.65;17.27;;;;;;;;;;5027080;28;20957;-91
2022/10/13 07:20:28;;;;;;;21.92;17.63;;;;;;;;;;5025586;28;20488;-91
2022/10/13 07:22:54;;;;;;;26.13;18.40;;;;;;;;;;5019291;28;20421;-92
2022/10/13 07:25:21;;;;;;;19.52;17.27;;;;;;;;;;5032851;28;20383;-92
2022/10/13 07:27:47;;;;;;;22.15;18.70;;;;;;;;;;5008748;28;21163;-92
2022/10/13 07:30:13;;;;;;;25.33;20.33;;;;;;;;;;5009362;28;20423;-92
2022/10/13 07:32:41;;;;;;;23.58;20.13;;;;;;;;;;5012090;28;20442;-90
2022/10/13 07:35:07;;;;;;;25.83;19.95;;;;;;;;;;5013120;28;20388;-91
2022/10/13 07:37:33;;;;;;;27.00;19.02;;;;;;;;;;5012175;28;20396;-91
2022/10/13 07:39:59;;;;;;;23.35;19.20;;;;;;;;;;5012923;28;20384;-90
2022/10/13 07:42:25;;;;;;;23.77;19.13;;;;;;;;;;5011538;28;21007;-91
2022/10/13 07:44:51;;;;;;;23.77;17.95;;;;;;;;;;5007066;28;20467;-90
2022/10/13 07:47:17;;;;;;;20.30;18.17;;;;;;;;;;5025792;28;20473;-91
2022/10/13 07:49:43;;;;;;;22.83;18.40;;;;;;;;;;5014236;28;20388;-89
2022/10/13 07:52:09;;;;;;;27.30;19.50;;;;;;;;;;5012367;28;20404;-90
2022/10/13 07:54:35;;;;;;;21.90;18.35;;;;;;;;;;5009757;28;20377;-89
2022/10/13 07:57:02;;;;;;;23.58;19.10;;;;;;;;;;5010593;28;20495;-90
2022/10/13 07:59:28;;;;;;;27.38;20.10;;;;;;;;;;5012886;28;20742;-89
2022/10/13 08:01:54;;;;;;;22.45;18.67;;;;;;;;;;5012550;28;20412;-91
2022/10/13 08:04:20;;;;;;;24.50;20.02;;;;;;;;;;5013037;28;20385;-90
2022/10/13 08:06:47;;;;;;;19.77;17.67;;;;;;;;;;5012751;28;20897;-90
2022/10/13 08:09:13;;;;;;;24.38;18.73;;;;;;;;;;5013075;28;20377;-90
2022/10/13 08:11:39;;;;;;;21.20;18.08;;;;;;;;;;5010448;28;20377;-90
2022/10/13 08:14:05;;;;;;;23.13;18.55;;;;;;;;;;5002650;28;20384;-91
2022/10/13 08:16:31;;;;;;;21.87;18.10;;;;;;;;;;5012581;28;20385;-90
2022/10/13 08:18:58;;;;;;;23.23;18.65;;;;;;;;;;5012691;28;20384;-90
2022/10/13 08:21:24;;;;;;;22.30;18.42;;;;;;;;;;5012476;28;20901;-89
2022/10/13 08:23:50;;;;;;;21.10;18.33;;;;;;;;;;5012864;28;20517;-90
2022/10/13 08:26:20;;;;;;;27.98;19.48;;;;;;;;;;5012640;28;20388;-90
2022/10/13 08:28:46;;;;;;;25.95;19.77;;;;;;;;;;5012385;28;20866;-89
2022/10/13 08:31:12;;;;;;;28.67;19.65;;;;;;;;;;5021863;28;20398;-91
2022/10/13 08:33:40;;;;;;;23.73;19.10;;;;;;;;;;5015406;28;20381;-89
2022/10/13 08:36:06;;;;;;;21.85;18.27;;;;;;;;;;5012473;28;20384;-90
2022/10/13 08:38:32;;;;;;;24.03;19.40;;;;;;;;;;5012502;28;20385;-89
2022/10/13 08:40:58;;;;;;;29.05;20.08;;;;;;;;;;5018253;28;20742;-90
2022/10/13 08:43:24;;;;;;;24.83;19.75;;;;;;;;;;5018929;28;20455;-90
2022/10/13 08:45:52;;;;;;;24.13;19.05;;;;;;;;;;5018960;28;20858;-89
2022/10/13 08:48:21;;;;;;;23.10;18.77;;;;;;;;;;5018002;28;20389;-90
2022/10/13 08:50:49;;;;;;;22.85;18.48;;;;;;;;;;5018112;28;20381;-89
2022/10/13 08:53:29;;;;;;;20.35;17.73;;;;;;;;;;5017676;28;20716;-89
2022/10/13 08:55:57;;;;;;;23.70;18.42;;;;;;;;;;5018787;28;20388;-91
2022/10/13 08:58:25;;;;;;;23.65;19.13;;;;;;;;;;5019838;28;20380;-89
2022/10/13 09:01:11;;;;;;;25.27;20.40;;;;;;;;;;5018269;28;20435;-89
2022/10/13 09:03:46;;;;;;;23.70;19.58;;;;;;;;;;5017479;28;20478;-90
2022/10/13 09:06:27;;;;;;;21.05;18.42;;;;;;;;;;5018576;28;20408;-90
2022/10/13 09:08:57;;;;;;;20.45;18.10;;;;;;;;;;5017749;28;20380;-91
2022/10/13 09:11:25;;;;;;;23.27;19.40;;;;;;;;;;5018538;28;20381;-89
2022/10/13 09:13:55;;;;;;;18.63;16.65;;;;;;;;;;5017828;28;20458;-90
2022/10/13 09:16:30;;;;;;;21.98;18.10;;;;;;;;;;5031759;28;20464;-89
2022/10/13 09:19:11;;;;;;;22.40;18.30;;;;;;;;;;5020646;28;20870;-90
2022/10/13 09:21:38;;;;;;;20.75;17.27;;;;;;;;;;5018930;28;20388;-90
2022/10/13 09:24:12;;;;;;;20.63;17.80;;;;;;;;;;5018525;28;20399;-89
2022/10/13 09:26:38;;;;;;;23.98;18.15;;;;;;;;;;5032817;28;20429;-90
2022/10/13 09:29:15;;;;;;;21.38;16.98;;;;;;;;;;5018573;28;20384;-91
2022/10/13 09:31:41;;;;;;;23.77;20.38;;;;;;;;;;5017497;28;20420;-89
2022/10/13 09:34:19;;;;;;;22.73;18.45;;;;;;;;;;5018306;28;20388;-89
2022/10/13 09:36:58;;;;;;;31.83;20.45;;;;;;;;;;5018377;28;20471;-89
2022/10/13 09:39:25;;;;;;;26.67;21.17;;;;;;;;;;5018795;28;20857;-89
2022/10/13 09:41:51;;;;;;;26.58;20.67;;;;;;;;;;5018023;28;20413;-90
2022/10/13 09:44:26;;;;;;;31.65;22.55;;;;;;;;;;5018300;28;20387;-90
2022/10/13 09:46:54;;;;;;;26.23;21.35;;;;;;;;;;5018353;28;20485;-91
2022/10/13 09:49:27;;;;;;;24.77;22.03;;;;;;;;;;5018380;28;20441;-90
2022/10/13 09:51:58;;;;;;;21.80;19.40;;;;;;;;;;5007600;28;20457;-90
2022/10/13 09:54:26;;;;;;;27.90;21.15;;;;;;;;;;5013840;28;20504;-91
2022/10/13 09:56:58;;;;;;;23.70;19.88;;;;;;;;;;5015295;28;20413;-90
2022/10/13 09:59:36;;;;;;;25.15;19.77;;;;;;;;;;5014032;28;20404;-90
2022/10/13 10:02:13;;;;;;;31.98;21.30;;;;;;;;;;5013550;28;20976;-90
2022/10/13 10:04:42;;;;;;;27.00;20.98;;;;;;;;;;5014577;28;20463;-90
2022/10/13 10:07:13;;;;;;;27.40;20.40;;;;;;;;;;5013213;28;20396;-90
2022/10/13 10:09:41;;;;;;;32.85;22.23;;;;;;;;;;5030312;28;20728;-91
2022/10/13 10:12:12;;;;;;;25.38;21.10;;;;;;;;;;5013884;28;20396;-91
2022/10/13 10:14:38;;;;;;;25.85;20.27;;;;;;;;;;5014937;28;20396;-91
2022/10/13 10:17:14;;;;;;;28.37;19.97;;;;;;;;;;5014918;28;20429;-92
2022/10/13 10:20:02;;;;;;;26.90;20.58;;;;;;;;;;5015036;28;20468;-91
2022/10/13 10:22:28;;;;;;;24.05;19.95;;;;;;;;;;5012497;28;20407;-92
2022/10/13 10:25:13;;;;;;;24.23;19.95;;;;;;;;;;5014824;28;20381;-91
2022/10/13 10:27:43;;;;;;;26.83;20.35;;;;;;;;;;5015106;28;20403;-91
2022/10/13 10:30:16;;;;;;;26.13;20.75;;;;;;;;;;5013531;28;20870;-91
2022/10/13 10:33:00;;;;;;;24.67;19.43;;;;;;;;;;5014576;28;20404;-91
2022/10/13 10:35:26;;;;;;;21.63;18.23;;;;;;;;;;5014706;28;20389;-90
2022/10/13 10:38:11;;;;;;;23.67;19.27;;;;;;;;;;5012957;28;20389;-91
2022/10/13 10:40:37;;;;;;;25.13;19.73;;;;;;;;;;5014432;28;20466;-89
2022/10/13 10:43:21;;;;;;;26.60;18.77;;;;;;;;;;5013037;28;20858;-90
2022/10/13 10:45:48;;;;;;;20.70;18.60;;;;;;;;;;5013798;28;20431;-91
2022/10/13 10:48:34;;;;;;;24.77;19.90;;;;;;;;;;5016430;28;20392;-92
2022/10/13 10:51:01;;;;;;;24.77;20.33;;;;;;;;;;5013655;28;20377;-92
2022/10/13 10:53:48;;;;;;;25.63;20.55;;;;;;;;;;5014114;28;20389;-93
2022/10/13 10:56:30;;;;;;;29.75;21.00;;;;;;;;;;5025041;28;20420;-90
2022/10/13 10:58:56;;;;;;;28.58;20.23;;;;;;;;;;5013433;28;20385;-91
2022/10/13 11:01:35;;;;;;;26.80;20.33;;;;;;;;;;5011473;28;20423;-92
2022/10/13 11:04:21;;;;;;;25.10;19.95;;;;;;;;;;5013468;28;20392;-91
2022/10/13 11:06:47;;;;;;;27.15;19.08;;;;;;;;;;5013651;28;20456;-91
2022/10/13 11:09:13;;;;;;;25.40;18.98;;;;;;;;;;5013384;28;20399;-90
2022/10/13 11:11:41;;;;;;;26.13;19.60;;;;;;;;;;5019004;28;20939;-91
2022/10/13 11:14:07;;;;;;;27.17;18.85;;;;;;;;;;5013763;28;20484;-91
2022/10/13 11:16:35;;;;;;;22.55;19.98;;;;;;;;;;5011552;28;20500;-91
2022/10/13 11:19:24;;;;;;;25.90;19.33;;;;;;;;;;5013744;28;20420;-90
2022/10/13 11:21:53;;;;;;;21.73;19.02;;;;;;;;;;5015772;28;20508;-91
2022/10/13 11:24:35;;;;;;;22.80;18.10;;;;;;;;;;5021116;28;20529;-92
2022/10/13 11:27:16;;;;;;;26.35;18.35;;;;;;;;;;5013361;28;20862;-91
2022/10/13 11:29:50;;;;;;;23.63;18.73;;;;;;;;;;5013041;28;20435;-90
2022/10/13 11:32:26;;;;;;;24.05;19.15;;;;;;;;;;5021997;28;20373;-92
2022/10/13 11:35:12;;;;;;;27.77;18.52;;;;;;;;;;5014035;28;20381;-90
2022/10/13 11:37:38;;;;;;;28.80;19.20;;;;;;;;;;4996284;28;20476;-93
2022/10/13 11:40:26;;;;;;;22.42;18.00;;;;;;;;;;5013554;28;20476;-90
2022/10/13 11:42:55;;;;;;;21.38;17.95;;;;;;;;;;5003306;28;20419;-90
2022/10/13 11:45:35;;;;;;;25.23;18.50;;;;;;;;;;5026433;28;20400;-88
2022/10/13 11:48:21;;;;;;;23.38;18.50;;;;;;;;;;5010234;28;20442;-89
2022/10/13 11:50:58;;;;;;;26.00;17.95;;;;;;;;;;5011479;28;20380;-91
2022/10/13 11:53:26;;;;;;;22.15;17.98;;;;;;;;;;5012899;28;20385;-90
2022/10/13 11:55:54;;;;;;;22.45;18.60;;;;;;;;;;5010995;28;20402;-90
2022/10/13 11:58:21;;;;;;;23.00;17.45;;;;;;;;;;5027895;28;20389;-86
2022/10/13 12:00:51;;;;;;;24.60;18.00;;;;;;;;;;5012403;28;20381;-90
2022/10/13 12:03:25;;;;;;;21.60;17.90;;;;;;;;;;5012614;28;20404;-89
2022/10/13 12:05:51;;;;;;;19.60;15.98;;;;;;;;;;5011025;28;20423;-89
2022/10/13 12:08:18;;;;;;;25.27;18.55;;;;;;;;;;5011174;28;20392;-89
2022/10/13 12:10:45;;;;;;;22.00;16.90;;;;;;;;;;5010819;28;20384;-88
2022/10/13 12:13:20;;;;;;;20.52;17.80;;;;;;;;;;5012327;28;20469;-88
2022/10/13 12:15:46;;;;;;;18.70;16.70;;;;;;;;;;5009293;28;20396;-88
2022/10/13 12:18:34;;;;;;;22.67;16.70;;;;;;;;;;5009471;28;20387;-89
2022/10/13 12:21:09;;;;;;;20.17;16.38;;;;;;;;;;5014630;28;20416;-88
2022/10/13 12:23:35;;;;;;;23.43;17.30;;;;;;;;;;5010792;28;20765;-88
2022/10/13 12:26:01;;;;;;;19.23;16.77;;;;;;;;;;5012294;28;20948;-90
2022/10/13 12:28:45;;;;;;;21.13;15.98;;;;;;;;;;5012079;28;20400;-88
2022/10/13 12:31:31;;;;;;;19.13;15.57;;;;;;;;;;5010000;28;20389;-88
2022/10/13 12:33:58;;;;;;;16.67;14.10;;;;;;;;;;5016403;28;20396;-88
2022/10/13 12:36:32;;;;;;;16.52;14.82;;;;;;;;;;5011808;28;20377;-89
2022/10/13 12:39:03;;;;;;;16.75;14.32;;;;;;;;;;5012524;28;20463;-87
2022/10/13 12:41:34;;;;;;;18.83;13.38;;;;;;;;;;5008439;28;20897;-89
2022/10/13 12:44:01;;;;;;;18.17;14.23;;;;;;;;;;5011582;28;20392;-88
2022/10/13 12:46:36;;;;;;;15.88;14.15;;;;;;;;;;5012058;28;20882;-88
2022/10/13 12:49:06;;;;;;;15.13;13.55;;;;;;;;;;5007601;28;20904;-88
2022/10/13 12:51:34;;;;;;;15.60;13.77;;;;;;;;;;5011010;28;20434;-87
2022/10/13 12:54:00;;;;;;;15.35;12.88;;;;;;;;;;5011087;28;20471;-88
2022/10/13 12:56:28;;;;;;;14.80;12.63;;;;;;;;;;5025764;28;20842;-88
2022/10/13 12:58:54;;;;;;;15.70;13.30;;;;;;;;;;5009014;28;20469;-88
2022/10/13 13:01:27;;;;;;;17.33;12.80;;;;;;;;;;5011744;28;20920;-89
2022/10/13 13:04:12;;;;;;;13.85;11.15;;;;;;;;;;5011613;28;20444;-89
2022/10/13 13:06:38;;;;;;;17.60;12.48;;;;;;;;;;5010637;28;20735;-90
2022/10/13 13:09:19;;;;;;;13.50;11.98;;;;;;;;;;5012174;28;20384;-89
2022/10/13 13:11:45;;;;;;;15.93;12.50;;;;;;;;;;5012049;28;20923;-89
2022/10/13 13:14:35;;;;;;;13.95;11.85;;;;;;;;;;5011376;28;21458;-88
2022/10/13 13:17:05;;;;;;;15.40;12.70;;;;;;;;;;5028062;28;20422;-88
2022/10/13 13:19:31;;;;;;;15.48;12.20;;;;;;;;;;5012068;28;20392;-89
2022/10/13 13:21:57;;;;;;;15.73;13.80;;;;;;;;;;5011942;28;20496;-90
2022/10/13 13:24:23;;;;;;;18.55;13.05;;;;;;;;;;5011918;28;20464;-90
2022/10/13 13:26:49;;;;;;;15.85;12.52;;;;;;;;;;5014960;28;20491;-88
2022/10/13 13:29:15;;;;;;;16.60;12.55;;;;;;;;;;5015617;28;20376;-88
2022/10/13 13:31:41;;;;;;;12.50;11.20;;;;;;;;;;5018265;28;20435;-88
2022/10/13 13:34:07;;;;;;;12.68;10.32;;;;;;;;;;5015591;28;20388;-88
2022/10/13 13:36:33;;;;;;;14.35;11.68;;;;;;;;;;5014450;28;20469;-88
2022/10/13 13:38:59;;;;;;;15.25;10.45;;;;;;;;;;5015469;28;20388;-89
2022/10/13 13:41:29;;;;;;;14.65;10.15;;;;;;;;;;5015299;28;20381;-88
2022/10/13 13:43:55;;;;;;;15.40;9.70;;;;;;;;;;5015365;28;20421;-89
2022/10/13 13:46:23;;;;;;;14.98;10.02;;;;;;;;;;5014212;28;20454;-89
2022/10/13 13:48:49;;;;;;;15.05;10.23;;;;;;;;;;5015327;28;20442;-90
2022/10/13 13:51:15;;;;;;;16.65;10.18;;;;;;;;;;5015186;28;20400;-89
2022/10/13 13:53:42;;;;;;;13.05;10.20;;;;;;;;;;5015252;28;20941;-86
2022/10/13 13:56:12;;;;;;;10.52;9.32;;;;;;;;;;5015664;28;20432;-88
2022/10/13 13:58:38;;;;;;;12.13;10.37;;;;;;;;;;5015334;28;20454;-88
2022/10/13 14:01:04;;;;;;;12.43;9.40;;;;;;;;;;5014859;28;20555;-88
2022/10/13 14:03:30;;;;;;;11.82;9.13;;;;;;;;;;5005278;28;20417;-88
2022/10/13 14:05:56;;;;;;;11.60;9.48;;;;;;;;;;5013603;28;20809;-88
2022/10/13 14:08:22;;;;;;;13.38;9.82;;;;;;;;;;5013979;28;20373;-89
2022/10/13 14:10:48;;;;;;;15.80;9.50;;;;;;;;;;5013809;28;20901;-87
2022/10/13 14:13:14;;;;;;;14.45;9.50;;;;;;;;;;5014914;28;20385;-87
2022/10/13 14:15:40;;;;;;;15.52;10.02;;;;;;;;;;5015090;28;20397;-88
2022/10/13 14:18:06;;;;;;;12.45;9.63;;;;;;;;;;5014850;28;20399;-87
2022/10/13 14:20:32;;;;;;;11.27;9.20;;;;;;;;;;5013403;28;20389;-88
2022/10/13 14:22:58;;;;;;;11.30;8.60;;;;;;;;;;5014555;28;20408;-90
2022/10/13 14:25:24;;;;;;;12.27;9.05;;;;;;;;;;5013565;28;20382;-88
2022/10/13 14:27:50;;;;;;;12.85;9.85;;;;;;;;;;5005522;28;20393;-89
2022/10/13 14:30:16;;;;;;;14.30;9.23;;;;;;;;;;5014552;28;20463;-88
2022/10/13 14:32:42;;;;;;;11.48;8.82;;;;;;;;;;5014343;28;20377;-88
2022/10/13 14:35:08;;;;;;;10.00;8.40;;;;;;;;;;5013413;28;20389;-88
2022/10/13 14:37:34;;;;;;;14.13;9.13;;;;;;;;;;5013740;28;20850;-88
2022/10/13 14:40:00;;;;;;;11.93;8.40;;;;;;;;;;5014488;28;20377;-89
2022/10/13 14:42:26;;;;;;;10.55;7.80;;;;;;;;;;5012126;28;20477;-90
2022/10/13 14:44:52;;;;;;;12.32;8.25;;;;;;;;;;5027186;28;20389;-91
2022/10/13 14:47:21;;;;;;;11.88;8.15;;;;;;;;;;5027198;28;20381;-90
2022/10/13 14:49:47;;;;;;;11.38;8.18;;;;;;;;;;5027965;28;20393;-91
2022/10/13 14:52:13;;;;;;;11.95;8.05;;;;;;;;;;5028664;28;20404;-91
2022/10/13 14:54:39;;;;;;;13.18;8.05;;;;;;;;;;5025928;28;20449;-90
2022/10/13 14:57:06;;;;;;;10.35;7.68;;;;;;;;;;5025619;28;20393;-91
2022/10/13 14:59:32;;;;;;;13.07;8.10;;;;;;;;;;5012623;28;20479;-91
2022/10/13 15:01:58;;;;;;;12.10;7.90;;;;;;;;;;5012489;28;20439;-92
2022/10/13 15:04:25;;;;;;;10.68;8.00;;;;;;;;;;5013098;28;20447;-93
2022/10/13 15:06:51;;;;;;;10.90;8.25;;;;;;;;;;5013932;28;20435;-89
2022/10/13 15:09:17;;;;;;;14.00;8.27;;;;;;;;;;5013856;28;20384;-91
2022/10/13 15:11:45;;;;;;;10.02;8.52;;;;;;;;;;5012968;28;20472;-93
2022/10/13 15:14:11;;;;;;;11.95;7.78;;;;;;;;;;5013857;28;20463;-92
2022/10/13 15:16:37;;;;;;;9.15;7.43;;;;;;;;;;5013599;28;20769;-91
2022/10/13 15:19:03;;;;;;;15.68;8.40;;;;;;;;;;5013568;28;20385;-89
2022/10/13 15:21:29;;;;;;;9.45;7.60;;;;;;;;;;5013578;28;20385;-91
2022/10/13 15:23:56;;;;;;;11.27;7.33;;;;;;;;;;5013484;28;20500;-91
2022/10/13 15:26:22;;;;;;;10.15;6.97;;;;;;;;;;5012268;28;20510;-90
2022/10/13 15:28:49;;;;;;;11.70;7.80;;;;;;;;;;5013700;28;20463;-91
2022/10/13 15:31:16;;;;;;;12.13;8.00;;;;;;;;;;5013179;28;20419;-89
2022/10/13 15:33:45;;;;;;;12.73;8.20;;;;;;;;;;5015858;28;20811;-89
2022/10/13 15:36:11;;;;;;;9.75;7.85;;;;;;;;;;5012404;28;20910;-88
2022/10/13 15:38:37;;;;;;;11.05;8.75;;;;;;;;;;5012216;28;20488;-90
2022/10/13 15:41:04;;;;;;;11.02;8.35;;;;;;;;;;5012960;28;20480;-90
2022/10/13 15:43:31;;;;;;;9.40;7.90;;;;;;;;;;5011951;28;20408;-90
2022/10/13 15:46:01;;;;;;;14.32;9.27;;;;;;;;;;5012951;28;20400;-90
2022/10/13 15:48:27;;;;;;;13.52;8.00;;;;;;;;;;5011659;28;20751;-89
2022/10/13 15:50:53;;;;;;;13.98;8.45;;;;;;;;;;5013071;28;20381;-89
2022/10/13 15:53:19;;;;;;;11.98;7.90;;;;;;;;;;5012864;28;20391;-89
2022/10/13 15:55:46;;;;;;;12.45;8.23;;;;;;;;;;5012912;28;20438;-90
2022/10/13 15:58:14;;;;;;;10.20;7.82;;;;;;;;;;5012902;28;20393;-90
2022/10/13 16:00:41;;;;;;;12.50;8.70;;;;;;;;;;5010644;28;20412;-90
2022/10/13 16:03:12;;;;;;;10.88;8.18;;;;;;;;;;5006659;28;20444;-89
2022/10/13 16:05:40;;;;;;;14.40;8.90;;;;;;;;;;5009899;28;20381;-89
2022/10/13 16:08:06;;;;;;;11.20;8.10;;;;;;;;;;5012820;28;20379;-89
2022/10/13 16:10:32;;;;;;;17.87;9.50;;;;;;;;;;5012683;28;20475;-89
2022/10/13 16:12:58;;;;;;;12.40;8.50;;;;;;;;;;5012721;28;20380;-88
2022/10/13 16:15:24;;;;;;;11.82;9.82;;;;;;;;;;5012707;28;20381;-89
2022/10/13 16:17:53;;;;;;;13.40;9.25;;;;;;;;;;5012609;28;20391;-90
2022/10/13 16:20:19;;;;;;;10.18;8.82;;;;;;;;;;5012631;28;20381;-88
2022/10/13 16:22:46;;;;;;;12.40;8.30;;;;;;;;;;5012385;28;20412;-88
2022/10/13 16:25:12;;;;;;;13.30;8.60;;;;;;;;;;5004904;28;20375;-89
2022/10/13 16:27:38;;;;;;;12.98;7.97;;;;;;;;;;5009403;28;20468;-89
2022/10/13 16:30:04;;;;;;;10.65;8.93;;;;;;;;;;5012294;28;20424;-88
2022/10/13 16:32:30;;;;;;;11.50;8.50;;;;;;;;;;5012091;28;20393;-89
2022/10/13 16:34:56;;;;;;;10.15;7.68;;;;;;;;;;5012619;28;20392;-89
2022/10/13 16:37:22;;;;;;;10.80;8.70;;;;;;;;;;5012287;28;20515;-88
2022/10/13 16:39:48;;;;;;;12.05;8.43;;;;;;;;;;5012272;28;20858;-88
2022/10/13 16:42:14;;;;;;;11.37;8.23;;;;;;;;;;5012291;28;20413;-88
2022/10/13 16:44:40;;;;;;;12.13;8.63;;;;;;;;;;5012557;28;20388;-86
2022/10/13 16:47:06;;;;;;;13.52;8.13;;;;;;;;;;5011857;28;20392;-87
2022/10/13 16:49:32;;;;;;;12.07;8.27;;;;;;;;;;5013584;28;20803;-89
2022/10/13 16:51:59;;;;;;;15.80;8.90;;;;;;;;;;5010878;28;20473;-88
2022/10/13 16:54:25;;;;;;;10.02;8.15;;;;;;;;;;5011004;28;20846;-89
2022/10/13 16:56:51;;;;;;;17.50;11.60;;;;;;;;;;5012239;28;20396;-89
2022/10/13 16:59:17;;;;;;;21.38;15.98;;;;;;;;;;5012352;28;20391;-88
2022/10/13 17:01:44;;;;;;;23.45;19.13;;;;;;;;;;5014211;28;20913;-88
2022/10/13 17:04:10;;;;;;;23.00;19.23;;;;;;;;;;5016223;28;20389;-88
2022/10/13 17:06:38;;;;;;;20.83;17.88;;;;;;;;;;5016188;28;20376;-89
2022/10/13 17:09:04;;;;;;;14.15;11.77;;;;;;;;;;5016075;28;20800;-88
2022/10/13 17:11:31;;;;;;;12.77;8.63;;;;;;;;;;5014663;28;20746;-89
2022/10/13 17:13:58;;;;;;;10.07;7.60;;;;;;;;;;5015895;28;20376;-90
2022/10/13 17:16:25;;;;;;;12.30;7.13;;;;;;;;;;5014898;28;20381;-90
2022/10/13 17:18:50;;;;;;;9.38;7.38;;;;;;;;;;5030086;28;20881;-89
2022/10/13 17:21:17;;;;;;;13.40;7.70;;;;;;;;;;5008913;28;20404;-89
2022/10/13 17:23:43;;;;;;;15.50;8.60;;;;;;;;;;5013558;28;20408;-88
2022/10/13 17:26:11;;;;;;;13.48;9.13;;;;;;;;;;5015337;28;20384;-89
2022/10/13 17:28:37;;;;;;;15.18;10.00;;;;;;;;;;5015551;28;20384;-88
2022/10/13 17:31:05;;;;;;;12.85;9.88;;;;;;;;;;5016787;28;20472;-90
2022/10/13 17:33:32;;;;;;;13.98;9.25;;;;;;;;;;5015627;28;20480;-90
2022/10/13 17:35:59;;;;;;;11.73;8.60;;;;;;;;;;5015526;28;20385;-89
2022/10/13 17:38:25;;;;;;;14.73;9.48;;;;;;;;;;5014510;28;20397;-90
2022/10/13 17:40:51;;;;;;;14.73;10.07;;;;;;;;;;5010376;28;20443;-89
2022/10/13 17:43:17;;;;;;;13.25;8.05;;;;;;;;;;5015076;28;20400;-90
2022/10/13 17:45:43;;;;;;;9.98;7.20;;;;;;;;;;5014241;28;20459;-90
2022/10/13 17:48:09;;;;;;;11.33;7.07;;;;;;;;;;5013815;28;20513;-89
2022/10/13 17:50:36;;;;;;;10.45;6.68;;;;;;;;;;5014906;28;20435;-89
2022/10/13 17:53:02;;;;;;;10.00;6.57;;;;;;;;;;5013932;28;20439;-91
2022/10/13 17:55:29;;;;;;;7.68;5.93;;;;;;;;;;5015228;28;20395;-91
2022/10/13 17:57:56;;;;;;;11.25;5.82;;;;;;;;;;5013245;28;20387;-89
2022/10/13 18:00:22;;;;;;;9.00;6.60;;;;;;;;;;5013871;28;20545;-90
2022/10/13 18:02:48;;;;;;;9.00;6.07;;;;;;;;;;5012097;28;20817;-91
2022/10/13 18:05:16;;;;;;;7.18;5.50;;;;;;;;;;5013483;28;20389;-90
2022/10/13 18:07:42;;;;;;;9.50;5.70;;;;;;;;;;5011046;28;20388;-90
2022/10/13 18:10:09;;;;;;;9.43;5.90;;;;;;;;;;5012657;28;20392;-90
2022/10/13 18:12:36;;;;;;;8.15;5.60;;;;;;;;;;5012253;28;20416;-90
2022/10/13 18:15:02;;;;;;;8.05;6.20;;;;;;;;;;5014794;28;20388;-91
2022/10/13 18:17:28;;;;;;;7.75;5.82;;;;;;;;;;5012958;28;20386;-90
2022/10/13 18:19:56;;;;;;;8.73;5.63;;;;;;;;;;5008104;28;20483;-91
2022/10/13 18:22:22;;;;;;;7.72;5.65;;;;;;;;;;5011828;28;20427;-89
2022/10/13 18:24:48;;;;;;;10.07;5.78;;;;;;;;;;5011527;28;20874;-91
2022/10/13 18:27:14;;;;;;;8.15;5.50;;;;;;;;;;5013731;28;20428;-91